Time;durP1;ratioP1;P1;durP2;ratioP2;P2;SDS_P1;SDS_P2;PMS_P1;PMS_P2;Temp;Humidity;BMP_temperature;BMP_pressure;BME280_temperature;BME280_humidity;BME280_pressure;Samples;Min_cycle;Max_cycle;Signal;HPM_P1;HPM_P2
2023/06/19 00:00:30;;;;;;;11.30;10.57;;;21.50;99.90;;;;;;5092773;28;20169;-70
2023/06/19 00:02:56;;;;;;;10.82;10.10;;;21.40;99.90;;;;;;5092769;28;20214;-70
2023/06/19 00:05:23;;;;;;;10.90;10.18;;;21.40;99.90;;;;;;5072390;28;20186;-70
2023/06/19 00:07:48;;;;;;;9.75;9.05;;;21.30;99.90;;;;;;5072327;28;20189;-70
2023/06/19 00:10:14;;;;;;;6.85;6.35;;;21.30;99.90;;;;;;5072395;28;20723;-70
2023/06/19 00:12:40;;;;;;;7.47;6.95;;;21.30;99.90;;;;;;5072369;28;20679;-70
2023/06/19 00:15:07;;;;;;;6.90;6.40;;;21.40;99.90;;;;;;5054535;28;20198;-70
2023/06/19 00:17:33;;;;;;;6.43;6.03;;;21.40;99.90;;;;;;5072243;28;20227;-70
2023/06/19 00:19:58;;;;;;;7.22;6.63;;;21.40;99.90;;;;;;5091476;28;20173;-70
2023/06/19 00:22:25;;;;;;;6.95;6.35;;;21.40;99.90;;;;;;5092569;28;20188;-70
2023/06/19 00:24:51;;;;;;;7.93;6.38;;;21.40;99.90;;;;;;5092305;28;20197;-70
2023/06/19 00:27:18;;;;;;;7.55;6.60;;;21.30;99.90;;;;;;5092534;28;20231;-70
2023/06/19 00:29:43;;;;;;;7.85;7.00;;;21.30;99.90;;;;;;5092464;28;20706;-70
2023/06/19 00:32:09;;;;;;;7.57;6.95;;;21.30;99.90;;;;;;5073997;28;20292;-70
2023/06/19 00:34:36;;;;;;;9.05;6.20;;;21.20;99.90;;;;;;5092130;28;20225;-70
2023/06/19 00:37:03;;;;;;;6.55;6.05;;;21.20;99.90;;;;;;5092397;28;20178;-69
2023/06/19 00:39:28;;;;;;;7.45;6.75;;;21.10;99.90;;;;;;5091787;28;20185;-70
2023/06/19 00:41:55;;;;;;;10.60;9.77;;;21.10;99.90;;;;;;5092136;28;20258;-70
2023/06/19 00:44:21;;;;;;;7.63;7.00;;;21.00;99.90;;;;;;5092446;28;20165;-70
2023/06/19 00:46:49;;;;;;;8.82;8.13;;;21.00;99.90;;;;;;5073868;28;20181;-70
2023/06/19 00:49:15;;;;;;;10.25;9.45;;;21.00;99.90;;;;;;5092219;28;20173;-70
2023/06/19 00:51:41;;;;;;;11.18;10.32;;;21.00;99.90;;;;;;5092050;28;20200;-70
2023/06/19 00:54:07;;;;;;;9.82;8.95;;;21.00;99.90;;;;;;5091966;28;20172;-70
2023/06/19 00:56:34;;;;;;;8.52;7.78;;;21.00;99.90;;;;;;5091863;28;20189;-70
2023/06/19 00:59:01;;;;;;;10.65;9.75;;;21.00;99.90;;;;;;5092149;28;20220;-70
2023/06/19 01:01:27;;;;;;;9.77;8.98;;;21.10;99.90;;;;;;5091884;28;20222;-70
2023/06/19 01:03:53;;;;;;;12.82;11.90;;;21.20;99.90;;;;;;5091781;28;20180;-70
2023/06/19 01:06:28;;;;;;;12.18;10.18;;;21.10;99.90;;;;;;5073905;28;20197;-70
2023/06/19 01:09:02;;;;;;;11.75;10.85;;;21.20;99.90;;;;;;5091308;28;20211;-70
2023/06/19 01:11:37;;;;;;;12.55;11.18;;;21.20;99.90;;;;;;5073220;28;20602;-70
2023/06/19 01:14:28;;;;;;;10.05;9.25;;;21.10;99.90;;;;;;5091652;28;20153;-70
2023/06/19 01:16:54;;;;;;;11.02;10.25;;;21.10;99.90;;;;;;5091708;28;20207;-70
2023/06/19 01:19:21;;;;;;;10.80;9.95;;;21.10;99.90;;;;;;5073229;28;20214;-70
2023/06/19 01:21:48;;;;;;;8.90;8.07;;;21.00;99.90;;;;;;5073330;28;20177;-70
2023/06/19 01:24:14;;;;;;;8.57;7.75;;;21.00;99.90;;;;;;5091431;28;20249;-70
2023/06/19 01:26:41;;;;;;;8.32;7.53;;;20.90;99.90;;;;;;5091505;28;20654;-70
2023/06/19 01:29:08;;;;;;;9.85;8.95;;;20.80;99.90;;;;;;5091387;28;20180;-70
2023/06/19 01:31:42;;;;;;;8.27;7.57;;;20.80;99.90;;;;;;5091272;28;20193;-70
2023/06/19 01:34:11;;;;;;;11.63;10.60;;;20.70;99.90;;;;;;5091300;28;20170;-70
2023/06/19 01:36:37;;;;;;;9.48;8.25;;;20.70;99.90;;;;;;5091621;28;20170;-70
2023/06/19 01:39:03;;;;;;;9.63;8.82;;;20.70;99.90;;;;;;5091323;28;20192;-70
2023/06/19 01:41:31;;;;;;;8.43;7.80;;;20.70;99.90;;;;;;5091232;28;20173;-70
2023/06/19 01:43:58;;;;;;;9.10;8.27;;;20.80;99.90;;;;;;5091293;28;20177;-70
2023/06/19 01:46:23;;;;;;;9.27;8.20;;;20.90;99.90;;;;;;5091159;28;20291;-70
2023/06/19 01:48:49;;;;;;;10.40;9.25;;;20.90;99.90;;;;;;5091491;28;20499;-70
2023/06/19 01:51:15;;;;;;;9.40;8.57;;;21.00;99.90;;;;;;5091406;28;20201;-70
2023/06/19 01:53:41;;;;;;;8.30;7.63;;;21.10;99.90;;;;;;5091248;28;20650;-70
2023/06/19 01:56:07;;;;;;;9.88;8.88;;;21.10;99.90;;;;;;5091320;28;20220;-70
2023/06/19 01:58:32;;;;;;;10.65;9.75;;;21.20;99.90;;;;;;5091054;28;20196;-71
2023/06/19 02:00:58;;;;;;;9.45;8.55;;;21.20;99.90;;;;;;5091155;28;20635;-70
2023/06/19 02:03:23;;;;;;;10.55;9.40;;;21.30;99.90;;;;;;5073314;28;20223;-71
2023/06/19 02:05:49;;;;;;;9.73;8.93;;;21.30;99.90;;;;;;5090972;28;20200;-70
2023/06/19 02:08:15;;;;;;;11.25;8.27;;;21.40;99.90;;;;;;5091279;28;20193;-70
2023/06/19 02:10:40;;;;;;;10.57;8.25;;;21.40;99.90;;;;;;5090796;28;20173;-70
2023/06/19 02:13:06;;;;;;;8.70;7.90;;;21.50;99.90;;;;;;5091198;28;20673;-70
2023/06/19 02:15:31;;;;;;;10.73;9.75;;;21.60;99.90;;;;;;5091024;28;20234;-70
2023/06/19 02:17:57;;;;;;;10.45;9.55;;;21.60;99.90;;;;;;5091342;28;20169;-70
2023/06/19 02:20:26;;;;;;;10.23;9.43;;;21.70;99.90;;;;;;5074966;28;20178;-78
2023/06/19 02:22:52;;;;;;;10.02;9.18;;;21.70;99.90;;;;;;5097616;28;20170;-76
2023/06/19 02:25:18;;;;;;;9.93;9.10;;;21.70;99.90;;;;;;5078789;28;20201;-76
2023/06/19 02:27:43;;;;;;;9.25;8.43;;;21.80;99.90;;;;;;5096954;28;20650;-75
2023/06/19 02:30:10;;;;;;;9.20;8.38;;;21.80;99.90;;;;;;5097063;28;20178;-73
2023/06/19 02:32:35;;;;;;;8.02;7.35;;;21.90;99.90;;;;;;5096819;28;20630;-76
2023/06/19 02:35:01;;;;;;;9.07;8.18;;;21.90;99.90;;;;;;5097310;28;20246;-74
2023/06/19 02:37:26;;;;;;;8.65;7.85;;;21.90;99.90;;;;;;5097512;28;20357;-73
2023/06/19 02:39:52;;;;;;;7.95;7.35;;;21.90;99.90;;;;;;5078870;28;20538;-74
2023/06/19 02:42:18;;;;;;;8.40;7.53;;;21.80;99.90;;;;;;5097308;28;20166;-76
2023/06/19 02:44:43;;;;;;;8.07;7.38;;;21.80;99.90;;;;;;5096828;28;20200;-73
2023/06/19 02:47:09;;;;;;;8.40;7.70;;;21.60;99.90;;;;;;5096690;28;20181;-75
2023/06/19 02:49:35;;;;;;;9.05;8.25;;;21.50;99.90;;;;;;5096509;28;20237;-75
2023/06/19 02:52:00;;;;;;;8.50;7.90;;;21.30;99.90;;;;;;5096820;28;20213;-76
2023/06/19 02:54:26;;;;;;;8.23;7.53;;;21.00;99.90;;;;;;5078452;28;20190;-76
2023/06/19 02:56:51;;;;;;;8.30;7.50;;;20.90;99.90;;;;;;5096716;28;20240;-76
2023/06/19 02:59:17;;;;;;;9.02;7.45;;;20.90;99.90;;;;;;5096981;28;20582;-73
2023/06/19 03:01:43;;;;;;;7.45;6.75;;;20.80;99.90;;;;;;5096545;28;20172;-75
2023/06/19 03:04:08;;;;;;;7.22;6.63;;;20.80;99.90;;;;;;5097140;28;20201;-74
2023/06/19 03:06:39;;;;;;;8.90;8.10;;;20.80;99.90;;;;;;5097217;28;20165;-76
2023/06/19 03:09:11;;;;;;;8.38;7.68;;;20.80;99.90;;;;;;5098473;28;20231;-74
2023/06/19 03:11:40;;;;;;;6.90;6.22;;;20.70;99.90;;;;;;5098348;28;20654;-74
2023/06/19 03:14:07;;;;;;;6.40;5.90;;;20.80;99.90;;;;;;5096818;28;20597;-74
2023/06/19 03:16:34;;;;;;;12.00;11.20;;;20.70;99.90;;;;;;5078922;28;20584;-75
2023/06/19 03:18:59;;;;;;;12.70;11.60;;;20.70;99.90;;;;;;5098106;28;20188;-75
2023/06/19 03:21:26;;;;;;;9.55;8.65;;;20.60;99.90;;;;;;5080091;28;20643;-74
2023/06/19 03:23:52;;;;;;;6.68;6.00;;;20.50;99.90;;;;;;5080860;28;20650;-73
2023/06/19 03:26:19;;;;;;;6.57;6.07;;;20.40;99.90;;;;;;5080225;28;20270;-73
2023/06/19 03:28:46;;;;;;;6.53;5.95;;;20.40;99.90;;;;;;5098975;28;20725;-73
2023/06/19 03:31:12;;;;;;;5.88;5.38;;;20.30;99.90;;;;;;5098791;28;20189;-76
2023/06/19 03:33:38;;;;;;;5.57;5.18;;;20.30;99.90;;;;;;5099414;28;20172;-75
2023/06/19 03:36:04;;;;;;;9.32;6.10;;;20.30;99.90;;;;;;5081763;28;20278;-75
2023/06/19 03:38:29;;;;;;;6.78;6.07;;;20.20;99.90;;;;;;5100050;28;20169;-74
2023/06/19 03:40:55;;;;;;;6.68;6.13;;;20.20;99.90;;;;;;5100961;28;20245;-74
2023/06/19 03:43:21;;;;;;;7.25;6.55;;;20.20;99.90;;;;;;5101142;28;20174;-75
2023/06/19 03:45:46;;;;;;;6.45;5.43;;;20.20;99.90;;;;;;5099676;28;20647;-74
2023/06/19 03:48:12;;;;;;;6.68;6.00;;;20.20;99.90;;;;;;5099612;28;20210;-77
2023/06/19 03:50:38;;;;;;;6.75;6.05;;;20.20;99.90;;;;;;5097386;28;20172;-76
2023/06/19 03:53:04;;;;;;;6.35;5.75;;;20.20;99.90;;;;;;5099877;28;20201;-76
2023/06/19 03:55:30;;;;;;;5.55;5.15;;;20.20;99.90;;;;;;5099774;28;20252;-77
2023/06/19 03:57:55;;;;;;;7.72;6.45;;;20.20;99.90;;;;;;5102269;28;20186;-75
2023/06/19 04:00:22;;;;;;;5.93;5.07;;;20.30;99.90;;;;;;5103733;28;20654;-77
2023/06/19 04:02:47;;;;;;;6.72;6.22;;;20.20;99.90;;;;;;5108255;28;20229;-75
2023/06/19 04:05:15;;;;;;;5.95;5.50;;;20.30;99.90;;;;;;5108776;28;20212;-77
2023/06/19 04:07:41;;;;;;;6.25;5.75;;;20.20;99.90;;;;;;5091107;28;20771;-77
2023/06/19 04:10:07;;;;;;;6.63;6.20;;;20.20;99.90;;;;;;5090583;28;20248;-77
2023/06/19 04:12:33;;;;;;;6.70;6.20;;;20.20;99.90;;;;;;5098646;28;20219;-77
2023/06/19 04:14:59;;;;;;;6.13;5.63;;;20.30;99.90;;;;;;5093670;28;20270;-74
2023/06/19 04:17:25;;;;;;;6.68;6.18;;;20.30;99.90;;;;;;5094674;28;20175;-74
2023/06/19 04:19:51;;;;;;;5.30;4.90;;;20.40;99.90;;;;;;5097874;28;20208;-76
2023/06/19 04:22:16;;;;;;;6.13;5.07;;;20.50;99.90;;;;;;5095710;28;20174;-70
2023/06/19 04:24:42;;;;;;;6.13;4.88;;;20.50;99.90;;;;;;5092314;28;20220;-70
2023/06/19 04:27:08;;;;;;;5.32;4.75;;;20.60;99.90;;;;;;5092366;28;20197;-70
2023/06/19 04:29:34;;;;;;;7.80;5.57;;;20.60;99.90;;;;;;5073825;28;20181;-70
2023/06/19 04:32:02;;;;;;;5.45;5.15;;;20.60;99.90;;;;;;5092094;28;20201;-70
2023/06/19 04:34:28;;;;;;;5.40;4.90;;;20.60;99.90;;;;;;5091346;28;20599;-70
2023/06/19 04:36:58;;;;;;;5.15;4.85;;;20.60;99.90;;;;;;5092287;28;20169;-70
2023/06/19 04:39:24;;;;;;;5.45;4.93;;;20.50;99.90;;;;;;5091898;28;20248;-69
2023/06/19 04:41:49;;;;;;;7.05;6.65;;;20.50;99.90;;;;;;5073765;28;20281;-69
2023/06/19 04:44:15;;;;;;;5.20;4.80;;;20.60;99.90;;;;;;5091242;28;20171;-70
2023/06/19 04:46:41;;;;;;;5.78;5.43;;;20.60;99.90;;;;;;5091929;28;20653;-70
2023/06/19 04:49:07;;;;;;;5.75;5.38;;;20.60;99.90;;;;;;5091560;28;20250;-70
2023/06/19 04:51:32;;;;;;;5.65;5.25;;;20.70;99.90;;;;;;5091477;28;20213;-70
2023/06/19 04:53:59;;;;;;;5.22;4.78;;;20.80;99.90;;;;;;5073556;28;20170;-69
2023/06/19 04:56:25;;;;;;;4.93;4.47;;;20.90;99.90;;;;;;5091409;28;20293;-70
2023/06/19 04:58:51;;;;;;;5.20;4.80;;;21.00;99.90;;;;;;5073555;28;20702;-71
2023/06/19 05:01:17;;;;;;;8.45;7.18;;;21.10;99.90;;;;;;5091344;28;20166;-71
2023/06/19 05:03:46;;;;;;;7.25;5.15;;;21.20;99.90;;;;;;5091180;28;20204;-71
2023/06/19 05:06:11;;;;;;;6.30;5.90;;;21.40;99.90;;;;;;5073716;28;20666;-70
2023/06/19 05:08:37;;;;;;;5.00;4.60;;;21.50;99.90;;;;;;5091324;28;20219;-70
2023/06/19 05:11:03;;;;;;;8.13;7.13;;;21.60;99.90;;;;;;5091089;28;20215;-70
2023/06/19 05:13:28;;;;;;;7.32;5.38;;;21.80;99.90;;;;;;5091382;28;20523;-70
2023/06/19 05:15:55;;;;;;;23.00;7.93;;;21.80;99.90;;;;;;5073328;28;20189;-70
2023/06/19 05:18:21;;;;;;;13.30;7.45;;;21.80;99.90;;;;;;5091340;28;20244;-70
2023/06/19 05:20:47;;;;;;;11.95;10.35;;;21.80;99.90;;;;;;5090792;28;20265;-70
2023/06/19 05:23:12;;;;;;;17.88;6.47;;;21.80;99.90;;;;;;5091493;28;20165;-70
2023/06/19 05:25:38;;;;;;;5.63;4.40;;;21.90;99.90;;;;;;5091394;28;20247;-69
2023/06/19 05:28:04;;;;;;;4.40;4.10;;;22.00;99.90;;;;;;5072950;28;20181;-69
2023/06/19 05:30:29;;;;;;;7.78;7.35;;;22.00;99.90;;;;;;5090830;28;20169;-69
2023/06/19 05:32:55;;;;;;;8.30;7.80;;;22.00;99.90;;;;;;5072808;28;20197;-69
2023/06/19 05:35:21;;;;;;;9.68;8.98;;;21.80;99.90;;;;;;5091016;28;20185;-69
2023/06/19 05:37:47;;;;;;;6.43;6.03;;;21.80;99.90;;;;;;5090907;28;20180;-70
2023/06/19 05:40:13;;;;;;;7.75;5.78;;;21.70;99.90;;;;;;5071177;28;20178;-69
2023/06/19 05:42:40;;;;;;;4.93;4.50;;;21.70;99.90;;;;;;5052720;28;20174;-69
2023/06/19 05:45:06;;;;;;;6.88;6.47;;;21.60;99.90;;;;;;5083327;28;20658;-69
2023/06/19 05:47:31;;;;;;;4.93;4.50;;;21.70;99.90;;;;;;5091160;28;20715;-69
2023/06/19 05:49:57;;;;;;;4.95;4.65;;;21.80;99.90;;;;;;5090316;28;20250;-68
2023/06/19 05:52:24;;;;;;;5.03;4.72;;;21.90;99.90;;;;;;5086210;28;20601;-69
2023/06/19 05:54:50;;;;;;;4.60;4.20;;;22.00;99.90;;;;;;5088087;28;20200;-69
2023/06/19 05:57:18;;;;;;;3.80;3.50;;;22.30;99.90;;;;;;5094698;28;20177;-69
2023/06/19 05:59:44;;;;;;;10.00;4.50;;;22.70;99.90;;;;;;5094070;28;20482;-70
2023/06/19 06:02:09;;;;;;;3.33;3.13;;;23.00;99.90;;;;;;5094567;28;20173;-69
2023/06/19 06:04:36;;;;;;;3.88;3.40;;;23.10;99.90;;;;;;5094764;28;20193;-69
2023/06/19 06:07:01;;;;;;;3.33;3.03;;;23.10;99.90;;;;;;5094730;28;20190;-69
2023/06/19 06:09:27;;;;;;;12.48;4.60;;;23.10;99.90;;;;;;5094792;28;20272;-70
2023/06/19 06:11:53;;;;;;;4.40;2.80;;;23.20;99.90;;;;;;5094409;28;20270;-69
2023/06/19 06:14:18;;;;;;;5.38;4.15;;;23.30;99.90;;;;;;5094716;28;20173;-70
2023/06/19 06:16:44;;;;;;;3.03;2.83;;;23.30;99.90;;;;;;5094549;28;20236;-69
2023/06/19 06:19:09;;;;;;;3.20;2.88;;;23.30;99.90;;;;;;5094252;28;20246;-69
2023/06/19 06:21:35;;;;;;;4.03;3.75;;;23.50;99.90;;;;;;5094401;28;20256;-69
2023/06/19 06:24:01;;;;;;;11.68;4.10;;;23.80;99.90;;;;;;5094325;28;20646;-69
2023/06/19 06:26:27;;;;;;;3.85;3.47;;;24.10;99.90;;;;;;5094398;28;20737;-69
2023/06/19 06:28:53;;;;;;;3.47;3.17;;;24.50;99.90;;;;;;5093816;28;20261;-70
2023/06/19 06:31:19;;;;;;;3.63;3.33;;;24.90;99.90;;;;;;5092997;28;20205;-69
2023/06/19 06:33:44;;;;;;;3.92;3.13;;;25.30;99.90;;;;;;5094071;28;20166;-69
2023/06/19 06:36:10;;;;;;;3.40;3.10;;;25.70;99.90;;;;;;5093876;28;20207;-70
2023/06/19 06:38:36;;;;;;;3.67;3.47;;;25.90;99.90;;;;;;5093593;28;20174;-69
2023/06/19 06:41:02;;;;;;;3.92;3.50;;;26.30;99.90;;;;;;5093706;28;20177;-69
2023/06/19 06:43:27;;;;;;;4.43;2.70;;;26.80;99.90;;;;;;5093267;28;20174;-69
2023/06/19 06:45:53;;;;;;;6.53;3.60;;;26.90;99.90;;;;;;5093325;28;20197;-69
2023/06/19 06:48:20;;;;;;;4.20;2.83;;;26.80;99.90;;;;;;5094166;28;20176;-69
2023/06/19 06:50:46;;;;;;;3.50;3.22;;;26.60;99.90;;;;;;5092973;28;20196;-69
2023/06/19 06:53:11;;;;;;;3.40;3.20;;;26.10;99.90;;;;;;5093151;28;20674;-69
2023/06/19 06:55:37;;;;;;;4.68;3.30;;;25.70;99.90;;;;;;5093633;28;20225;-69
2023/06/19 06:58:03;;;;;;;6.20;3.08;;;25.50;99.90;;;;;;5093855;28;20635;-70
2023/06/19 07:00:29;;;;;;;3.40;3.10;;;25.50;99.90;;;;;;5093339;28;20533;-69
2023/06/19 07:02:54;;;;;;;3.78;3.47;;;25.50;99.90;;;;;;5093879;28;20166;-70
2023/06/19 07:05:20;;;;;;;3.55;3.35;;;25.50;99.90;;;;;;5088624;28;20202;-69
2023/06/19 07:07:46;;;;;;;4.97;3.35;;;25.60;99.90;;;;;;5072775;28;20256;-70
2023/06/19 07:10:11;;;;;;;7.57;2.83;;;25.70;99.90;;;;;;5056902;28;20590;-69
2023/06/19 07:12:45;;;;;;;3.30;2.88;;;25.70;99.90;;;;;;5093415;28;20207;-70
2023/06/19 07:15:11;;;;;;;3.35;3.15;;;25.70;99.90;;;;;;5093606;28;20193;-69
2023/06/19 07:17:37;;;;;;;4.10;3.80;;;25.70;99.90;;;;;;5093404;28;20173;-70
2023/06/19 07:20:04;;;;;;;4.15;3.22;;;25.70;99.90;;;;;;5093352;28;20177;-70
2023/06/19 07:22:29;;;;;;;3.60;3.30;;;25.70;99.90;;;;;;5093353;28;20173;-69
2023/06/19 07:24:55;;;;;;;5.18;3.80;;;25.60;99.90;;;;;;5092963;28;20193;-69
2023/06/19 07:27:21;;;;;;;3.22;2.92;;;25.40;99.90;;;;;;5093153;28;20193;-70
2023/06/19 07:29:46;;;;;;;5.78;3.00;;;25.20;99.90;;;;;;5092873;28;20224;-70
2023/06/19 07:32:12;;;;;;;3.20;2.95;;;25.00;99.90;;;;;;5092947;28;20212;-70
2023/06/19 07:34:37;;;;;;;3.80;3.22;;;24.80;99.90;;;;;;5093033;28;20189;-69
2023/06/19 07:37:03;;;;;;;3.78;3.47;;;24.60;99.90;;;;;;5092914;28;20185;-71
2023/06/19 07:39:29;;;;;;;5.47;3.50;;;24.40;99.90;;;;;;5085769;28;20185;-71
2023/06/19 07:41:54;;;;;;;3.78;3.38;;;24.40;99.90;;;;;;5093106;28;20204;-71
2023/06/19 07:44:20;;;;;;;4.07;3.20;;;24.30;99.90;;;;;;5093033;28;20630;-70
2023/06/19 07:46:46;;;;;;;3.60;3.40;;;24.50;99.90;;;;;;5092686;28;20712;-71
2023/06/19 07:49:12;;;;;;;3.53;3.22;;;24.50;99.90;;;;;;5092674;28;20189;-70
2023/06/19 07:51:37;;;;;;;3.22;3.03;;;24.60;99.90;;;;;;5074385;28;20197;-71
2023/06/19 07:54:03;;;;;;;4.88;3.00;;;24.50;99.90;;;;;;5092253;28;20181;-71
2023/06/19 07:56:29;;;;;;;13.27;3.60;;;24.60;99.90;;;;;;5092630;28;20203;-71
2023/06/19 07:58:54;;;;;;;3.90;3.60;;;24.70;99.90;;;;;;5092454;28;20180;-70
2023/06/19 08:01:20;;;;;;;3.92;3.63;;;24.60;99.90;;;;;;5091869;28;20619;-71
2023/06/19 08:03:46;;;;;;;4.55;4.15;;;24.70;99.90;;;;;;5092241;28;20248;-70
2023/06/19 08:06:12;;;;;;;3.58;3.28;;;24.80;99.90;;;;;;5092309;28;20200;-70
2023/06/19 08:08:37;;;;;;;4.03;3.72;;;24.90;99.90;;;;;;5092381;28;20640;-69
2023/06/19 08:11:03;;;;;;;3.58;3.28;;;25.00;99.90;;;;;;5092115;28;20166;-69
2023/06/19 08:13:28;;;;;;;3.70;3.38;;;25.20;99.90;;;;;;5092336;28;20205;-70
2023/06/19 08:15:54;;;;;;;3.30;3.00;;;25.20;99.90;;;;;;5092494;28;20196;-70
2023/06/19 08:18:20;;;;;;;4.00;3.70;;;25.50;99.90;;;;;;5073062;28;20173;-70
2023/06/19 08:20:45;;;;;;;3.45;3.25;;;25.90;99.90;;;;;;5091984;28;20227;-70
2023/06/19 08:23:11;;;;;;;3.15;2.95;;;26.60;99.90;;;;;;5092510;28;20177;-70
2023/06/19 08:25:36;;;;;;;3.35;3.10;;;27.30;99.90;;;;;;5091941;28;20205;-70
2023/06/19 08:28:02;;;;;;;3.67;3.38;;;27.90;99.90;;;;;;5092198;28;20177;-70
2023/06/19 08:30:28;;;;;;;3.90;3.20;;;28.20;99.90;;;;;;5091760;28;20176;-68
2023/06/19 08:32:53;;;;;;;4.63;3.80;;;27.90;99.90;;;;;;5091796;28;20693;-69
2023/06/19 08:35:19;;;;;;;3.97;3.63;;;28.00;99.90;;;;;;5092093;28;20224;-70
2023/06/19 08:37:44;;;;;;;8.32;5.10;;;28.40;99.90;;;;;;5091867;28;20620;-71
2023/06/19 08:40:12;;;;;;;6.35;3.47;;;28.40;99.90;;;;;;5090950;28;20252;-71
2023/06/19 08:42:38;;;;;;;4.18;3.33;;;29.00;99.90;;;;;;5089152;28;20185;-71
2023/06/19 08:45:06;;;;;;;3.55;3.30;;;29.70;99.90;;;;;;5091485;28;20561;-71
2023/06/19 08:47:33;;;;;;;6.82;3.70;;;30.00;99.90;;;;;;5073203;28;20174;-71
2023/06/19 08:49:59;;;;;;;3.78;3.35;;;30.60;99.90;;;;;;5091350;28;20173;-71
2023/06/19 08:52:25;;;;;;;4.72;3.45;;;30.50;99.90;;;;;;5091140;28;20572;-70
2023/06/19 08:54:50;;;;;;;3.80;3.53;;;29.70;99.90;;;;;;5090967;28;20212;-71
2023/06/19 08:57:16;;;;;;;3.90;3.60;;;29.40;99.90;;;;;;5091363;28;20368;-71
2023/06/19 08:59:51;;;;;;;6.15;4.38;;;29.00;99.90;;;;;;5090984;28;20174;-72
2023/06/19 09:02:17;;;;;;;4.35;3.75;;;29.30;99.90;;;;;;5090997;28;20214;-71
2023/06/19 09:04:42;;;;;;;3.72;3.42;;;29.90;99.90;;;;;;5090749;28;20189;-71
2023/06/19 09:07:08;;;;;;;4.40;4.05;;;30.40;99.90;;;;;;5090992;28;20547;-71
2023/06/19 09:09:34;;;;;;;4.13;3.83;;;30.40;99.90;;;;;;5091032;28;20169;-71
2023/06/19 09:12:05;;;;;;;5.32;4.32;;;30.40;99.90;;;;;;5091086;28;20208;-71
2023/06/19 09:14:37;;;;;;;5.97;4.20;;;30.30;99.90;;;;;;5085165;28;20294;-71
2023/06/19 09:17:12;;;;;;;4.63;3.45;;;29.70;99.90;;;;;;5070637;28;20200;-72
2023/06/19 09:19:46;;;;;;;3.75;3.45;;;29.50;99.90;;;;;;5078766;28;20638;-71
2023/06/19 09:22:12;;;;;;;5.40;3.65;;;29.50;99.90;;;;;;5090836;28;20272;-71
2023/06/19 09:24:40;;;;;;;3.70;3.40;;;29.70;99.90;;;;;;5090484;28;20668;-71
2023/06/19 09:27:13;;;;;;;4.13;3.83;;;29.60;99.90;;;;;;5090383;28;20169;-71
2023/06/19 09:29:44;;;;;;;5.68;5.15;;;29.60;99.90;;;;;;5090400;28;20622;-71
2023/06/19 09:32:22;;;;;;;5.80;5.30;;;29.40;99.90;;;;;;5090929;28;20205;-71
2023/06/19 09:34:50;;;;;;;4.18;3.88;;;29.40;99.90;;;;;;5090601;28;20197;-71
2023/06/19 09:37:24;;;;;;;6.97;4.40;;;29.70;99.90;;;;;;5090997;28;20172;-70
2023/06/19 09:39:58;;;;;;;7.25;4.40;;;29.50;99.90;;;;;;5072365;28;20174;-70
2023/06/19 09:42:34;;;;;;;5.97;5.43;;;29.20;99.90;;;;;;5090010;28;20614;-71
2023/06/19 09:45:08;;;;;;;4.60;3.88;;;28.70;99.90;;;;;;5090407;28;20230;-71
2023/06/19 09:47:42;;;;;;;4.43;4.03;;;29.10;99.90;;;;;;5091122;28;20707;-70
2023/06/19 09:50:08;;;;;;;5.65;5.05;;;29.50;99.90;;;;;;5090029;28;20625;-71
2023/06/19 09:52:34;;;;;;;5.00;4.60;;;29.70;99.90;;;;;;5090326;28;20254;-71
2023/06/19 09:55:06;;;;;;;4.45;4.05;;;29.50;99.90;;;;;;5090200;28;20535;-72
2023/06/19 09:57:33;;;;;;;4.65;4.25;;;29.70;99.90;;;;;;5090505;28;20531;-71
2023/06/19 10:00:09;;;;;;;7.32;4.68;;;29.60;99.90;;;;;;5071988;28;20181;-71
2023/06/19 10:02:35;;;;;;;4.25;3.88;;;29.20;99.90;;;;;;5089869;28;20264;-71
2023/06/19 10:05:01;;;;;;;4.65;4.25;;;28.60;99.90;;;;;;5090453;28;20666;-70
2023/06/19 10:07:33;;;;;;;7.63;4.35;;;28.60;99.90;;;;;;5090588;28;20268;-71
2023/06/19 10:09:59;;;;;;;4.85;4.32;;;28.50;99.90;;;;;;5090347;28;20165;-71
2023/06/19 10:12:43;;;;;;;10.65;4.72;;;28.80;99.90;;;;;;5088183;28;20223;-71
2023/06/19 10:15:19;;;;;;;5.32;3.85;;;29.10;99.90;;;;;;5090289;28;20667;-71
2023/06/19 10:17:45;;;;;;;6.10;5.60;;;29.70;99.90;;;;;;5090531;28;20169;-70
2023/06/19 10:20:33;;;;;;;7.18;5.65;;;30.50;99.90;;;;;;5090238;28;20542;-70
2023/06/19 10:23:18;;;;;;;5.95;4.32;;;30.80;99.90;;;;;;5090833;28;20598;-71
2023/06/19 10:25:45;;;;;;;4.43;3.80;;;31.00;99.90;;;;;;5072115;28;20228;-71
2023/06/19 10:28:28;;;;;;;4.95;4.45;;;30.80;99.90;;;;;;5090829;28;20226;-71
2023/06/19 10:31:08;;;;;;;5.35;4.00;;;30.80;99.90;;;;;;5090196;28;20533;-70
2023/06/19 10:33:41;;;;;;;4.00;3.67;;;31.00;99.90;;;;;;5090382;28;20177;-71
2023/06/19 10:36:19;;;;;;;5.53;4.35;;;31.30;99.90;;;;;;5090349;28;20224;-70
2023/06/19 10:38:49;;;;;;;5.45;4.30;;;31.40;99.90;;;;;;5090339;28;20598;-73
2023/06/19 10:41:25;;;;;;;4.45;4.10;;;31.30;99.90;;;;;;5090937;28;20178;-71
2023/06/19 10:43:55;;;;;;;4.65;4.25;;;31.20;99.90;;;;;;5093864;28;20263;-71
2023/06/19 10:46:23;;;;;;;4.50;4.10;;;31.80;99.90;;;;;;5092224;28;20227;-71
2023/06/19 10:48:49;;;;;;;5.88;5.45;;;32.00;99.90;;;;;;5093969;28;20592;-70
2023/06/19 10:51:19;;;;;;;5.03;4.60;;;32.10;99.90;;;;;;5093372;28;20525;-71
2023/06/19 10:53:44;;;;;;;5.03;4.53;;;32.30;99.90;;;;;;5093847;28;20165;-70
2023/06/19 10:56:10;;;;;;;5.50;3.95;;;32.40;99.90;;;;;;5093847;28;20685;-72
2023/06/19 10:58:35;;;;;;;5.32;4.43;;;31.70;99.90;;;;;;5093553;28;20219;-71
2023/06/19 11:01:01;;;;;;;5.25;4.85;;;30.90;99.90;;;;;;5093439;28;20197;-71
2023/06/19 11:03:27;;;;;;;5.03;3.92;;;30.40;99.90;;;;;;5093736;28;20677;-70
2023/06/19 11:05:52;;;;;;;9.38;6.07;;;30.20;99.90;;;;;;5093985;28;20193;-70
2023/06/19 11:08:22;;;;;;;4.57;4.18;;;30.50;99.90;;;;;;5093562;28;20548;-72
2023/06/19 11:10:49;;;;;;;4.57;4.18;;;31.10;99.90;;;;;;5093352;28;20180;-71
2023/06/19 11:13:16;;;;;;;6.47;4.63;;;31.10;99.90;;;;;;5093654;28;20197;-70
2023/06/19 11:15:42;;;;;;;5.20;4.43;;;31.10;99.90;;;;;;5093183;28;20205;-71
2023/06/19 11:18:08;;;;;;;5.22;4.72;;;31.20;99.90;;;;;;5093443;28;20180;-71
2023/06/19 11:20:44;;;;;;;6.00;4.97;;;31.20;99.90;;;;;;5072291;28;20178;-71
2023/06/19 11:23:09;;;;;;;5.43;5.00;;;31.10;99.90;;;;;;5093677;28;20177;-71
2023/06/19 11:25:36;;;;;;;4.80;4.40;;;31.00;99.90;;;;;;5092931;28;20728;-71
2023/06/19 11:28:04;;;;;;;6.95;4.32;;;31.10;99.90;;;;;;5093300;28;20185;-71
2023/06/19 11:30:33;;;;;;;5.18;4.78;;;31.00;99.90;;;;;;5092475;28;20696;-71
2023/06/19 11:33:00;;;;;;;6.40;5.28;;;31.40;99.90;;;;;;5073203;28;20583;-70
2023/06/19 11:35:34;;;;;;;9.00;4.18;;;31.50;99.90;;;;;;5083892;28;20284;-70
2023/06/19 11:38:00;;;;;;;6.63;4.85;;;31.70;99.90;;;;;;5093592;28;20656;-71
2023/06/19 11:40:25;;;;;;;7.88;3.75;;;31.80;99.30;;;;;;5092422;28;20178;-72
2023/06/19 11:42:54;;;;;;;5.18;4.63;;;32.10;99.90;;;;;;5093014;28;20179;-71
2023/06/19 11:45:21;;;;;;;5.47;3.90;;;32.40;99.70;;;;;;5092947;28;20363;-71
2023/06/19 11:47:48;;;;;;;6.30;4.53;;;32.00;99.20;;;;;;5093333;28;20231;-70
2023/06/19 11:50:15;;;;;;;8.13;4.72;;;32.00;99.80;;;;;;5092636;28;20169;-71
2023/06/19 11:52:46;;;;;;;4.65;3.88;;;32.10;99.80;;;;;;5092362;28;20244;-71
2023/06/19 11:55:13;;;;;;;9.35;4.50;;;32.10;98.70;;;;;;5092719;28;20225;-71
2023/06/19 11:57:40;;;;;;;8.40;4.25;;;32.00;99.60;;;;;;5092357;28;20169;-71
2023/06/19 12:00:15;;;;;;;4.80;4.40;;;32.40;99.90;;;;;;5092242;28;20169;-71
2023/06/19 12:02:41;;;;;;;4.70;4.30;;;32.90;97.40;;;;;;5092391;28;20176;-71
2023/06/19 12:05:07;;;;;;;4.95;4.50;;;32.60;95.70;;;;;;5092670;28;20283;-71
2023/06/19 12:07:33;;;;;;;5.00;4.60;;;32.00;96.10;;;;;;5092502;28;20182;-71
2023/06/19 12:09:58;;;;;;;4.93;4.43;;;31.80;96.70;;;;;;5092437;28;20189;-71
2023/06/19 12:12:25;;;;;;;4.93;4.10;;;32.00;98.20;;;;;;5092526;28;20204;-71
2023/06/19 12:14:51;;;;;;;4.93;4.20;;;32.60;96.70;;;;;;5092732;28;20649;-71
2023/06/19 12:17:17;;;;;;;5.60;4.57;;;32.70;96.70;;;;;;5092738;28;20247;-71
2023/06/19 12:19:42;;;;;;;7.15;4.10;;;33.20;96.00;;;;;;5092002;28;20258;-71
2023/06/19 12:22:08;;;;;;;5.60;3.92;;;33.70;96.20;;;;;;5092616;28;20170;-73
2023/06/19 12:24:33;;;;;;;7.30;4.90;;;33.80;93.80;;;;;;5092081;28;20208;-71
2023/06/19 12:26:59;;;;;;;5.50;4.90;;;33.30;94.20;;;;;;5074154;28;20201;-71
2023/06/19 12:29:26;;;;;;;4.85;4.35;;;33.10;96.50;;;;;;5092104;28;20170;-71
2023/06/19 12:31:51;;;;;;;5.57;4.50;;;33.30;94.10;;;;;;5091966;28;20247;-71
2023/06/19 12:34:17;;;;;;;7.65;4.00;;;33.60;95.60;;;;;;5091947;28;20205;-71
2023/06/19 12:36:43;;;;;;;4.82;4.43;;;33.70;93.80;;;;;;5073469;28;20172;-71
2023/06/19 12:39:16;;;;;;;4.32;3.92;;;33.50;93.40;;;;;;5091658;28;20256;-71
2023/06/19 12:41:41;;;;;;;5.22;4.72;;;33.30;93.60;;;;;;5091472;28;20177;-71
2023/06/19 12:44:07;;;;;;;9.82;4.75;;;33.00;93.70;;;;;;5091697;28;20227;-71